createdAt,value
2023-05-10T00:00:12.384Z,41.18
2023-05-10T00:01:12.383Z,41.19
2023-05-10T00:02:12.438Z,41.19
2023-05-10T00:03:12.516Z,41.17
2023-05-10T00:04:12.530Z,41.23
2023-05-10T00:05:12.386Z,41.20
2023-05-10T00:06:12.367Z,41.21
2023-05-10T00:07:12.371Z,41.21
2023-05-10T00:08:12.394Z,41.25
2023-05-10T00:09:12.373Z,41.23
2023-05-10T00:10:12.363Z,41.27
2023-05-10T00:11:12.365Z,41.25
2023-05-10T00:12:12.338Z,41.24
2023-05-10T00:13:12.406Z,41.26
2023-05-10T00:14:12.336Z,41.29
2023-05-10T00:15:12.339Z,41.26
2023-05-10T00:16:12.411Z,41.25
2023-05-10T00:17:12.339Z,41.25
2023-05-10T00:18:12.337Z,41.28
2023-05-10T00:19:12.353Z,41.28
2023-05-10T00:20:12.336Z,41.29
2023-05-10T00:21:12.357Z,41.29
2023-05-10T00:22:12.336Z,41.33
2023-05-10T00:23:12.336Z,41.33
2023-05-10T00:24:12.333Z,41.32
2023-05-10T00:25:12.364Z,41.32
2023-05-10T00:26:12.325Z,41.35
2023-05-10T00:27:12.356Z,41.35
2023-05-10T00:28:12.326Z,41.34
2023-05-10T00:29:12.328Z,41.30
2023-05-10T00:30:12.346Z,41.32
2023-05-10T00:31:12.329Z,41.34
2023-05-10T00:32:12.422Z,41.36
2023-05-10T00:33:12.341Z,41.36
2023-05-10T00:34:12.351Z,41.38
2023-05-10T00:35:12.346Z,41.38
2023-05-10T00:36:12.372Z,41.36
2023-05-10T00:37:12.388Z,41.38
2023-05-10T00:38:12.345Z,41.39
2023-05-10T00:39:12.357Z,41.40
2023-05-10T00:40:12.348Z,41.42
2023-05-10T00:41:12.347Z,41.39
2023-05-10T00:42:12.336Z,41.39
2023-05-10T00:43:12.364Z,41.41
2023-05-10T00:44:12.357Z,41.42
2023-05-10T00:45:12.345Z,41.44
2023-05-10T00:46:12.433Z,41.41
2023-05-10T00:47:12.361Z,41.40
2023-05-10T00:48:12.367Z,41.43
2023-05-10T00:49:12.372Z,41.44
2023-05-10T00:50:12.374Z,41.44
2023-05-10T00:51:12.354Z,41.44
2023-05-10T00:52:12.361Z,41.43
2023-05-10T00:53:12.387Z,41.46
2023-05-10T00:54:12.364Z,41.45
2023-05-10T00:55:12.399Z,41.44
2023-05-10T00:56:12.371Z,41.47
2023-05-10T00:57:12.384Z,41.46
2023-05-10T00:58:12.422Z,41.48
2023-05-10T00:59:12.404Z,41.50
2023-05-10T01:00:12.451Z,41.48
2023-05-10T01:01:12.434Z,41.48
2023-05-10T01:02:12.459Z,41.47
2023-05-10T01:03:12.585Z,41.49
2023-05-10T01:04:12.430Z,41.52
2023-05-10T01:05:12.439Z,41.53
2023-05-10T01:06:12.454Z,41.52
2023-05-10T01:07:12.457Z,41.49
2023-05-10T01:08:12.437Z,41.52
2023-05-10T01:09:12.480Z,41.54
2023-05-10T01:10:13.070Z,41.54
2023-05-10T01:11:12.502Z,41.55
2023-05-10T01:12:12.501Z,41.52
2023-05-10T01:13:12.507Z,41.54
2023-05-10T01:14:12.500Z,41.54
2023-05-10T01:15:12.485Z,41.56
2023-05-10T01:16:12.613Z,41.56
2023-05-10T01:17:12.498Z,41.57
2023-05-10T01:18:12.518Z,41.57
2023-05-10T01:29:42.213Z,41.96
2023-05-10T01:30:42.020Z,41.86
2023-05-10T01:31:42.040Z,41.83
2023-05-10T01:32:42.094Z,41.79
2023-05-10T01:33:41.999Z,41.78
2023-05-10T01:34:41.988Z,41.72
2023-05-10T01:35:41.985Z,41.76
2023-05-10T01:36:41.985Z,41.73
2023-05-10T01:37:41.965Z,41.72
2023-05-10T01:38:42.236Z,41.70
2023-05-10T01:39:41.997Z,41.70
2023-05-10T01:40:41.962Z,41.69
2023-05-10T01:41:41.941Z,41.69
2023-05-10T01:42:41.946Z,41.70
2023-05-10T01:43:41.944Z,41.75
2023-05-10T01:44:41.960Z,41.72
2023-05-10T01:45:41.937Z,41.72
2023-05-10T01:46:41.958Z,41.72
2023-05-10T01:47:41.954Z,41.71
2023-05-10T01:48:41.882Z,41.72
2023-05-10T01:49:41.884Z,41.72
2023-05-10T01:50:41.877Z,41.71
2023-05-10T01:51:41.915Z,41.77
2023-05-10T01:52:41.882Z,41.74
2023-05-10T01:53:41.943Z,41.76
2023-05-10T01:54:41.918Z,41.71
2023-05-10T01:55:42.710Z,41.73
2023-05-10T01:56:41.992Z,41.74
2023-05-10T01:57:41.926Z,41.76
2023-05-10T01:58:41.989Z,41.78
2023-05-10T01:59:42.022Z,41.78
2023-05-10T02:00:41.976Z,41.73
2023-05-10T02:01:41.943Z,41.78
2023-05-10T02:02:42.019Z,41.74
2023-05-10T02:03:42.014Z,41.74
2023-05-10T02:04:41.984Z,41.77
2023-05-10T02:05:41.996Z,41.79
2023-05-10T02:06:41.999Z,41.79
2023-05-10T02:07:42.003Z,41.78
2023-05-10T02:08:42.047Z,41.76
2023-05-10T02:09:42.054Z,41.79
2023-05-10T02:10:42.040Z,41.79
2023-05-10T02:11:42.049Z,41.80
2023-05-10T02:12:42.073Z,41.79
2023-05-10T02:13:42.080Z,41.78
2023-05-10T02:14:42.086Z,41.80
2023-05-10T02:15:42.072Z,41.82
2023-05-10T02:16:42.092Z,41.83
2023-05-10T02:17:42.153Z,41.84
2023-05-10T02:18:42.133Z,41.81
2023-05-10T02:19:42.156Z,41.86
2023-05-10T02:20:42.118Z,41.82
2023-05-10T02:21:42.130Z,41.84
2023-05-10T02:22:42.163Z,41.84
2023-05-10T02:23:42.172Z,41.85
2023-05-10T02:24:42.246Z,41.83
2023-05-10T02:25:42.199Z,41.83
2023-05-10T02:26:42.231Z,41.84
2023-05-10T02:27:42.235Z,41.86
2023-05-10T02:28:42.273Z,41.87
2023-05-10T02:29:42.291Z,41.87
2023-05-10T02:30:42.290Z,41.85
2023-05-10T02:31:42.314Z,41.89
2023-05-10T02:32:42.328Z,41.88
2023-05-10T02:33:42.347Z,41.87
2023-05-10T02:34:42.380Z,41.89
2023-05-10T02:35:42.387Z,41.87
2023-05-10T02:36:42.402Z,41.91
2023-05-10T02:37:42.400Z,41.91
2023-05-10T02:38:42.433Z,41.90
2023-05-10T02:39:42.430Z,41.92
2023-05-10T02:40:42.462Z,41.91
2023-05-10T02:41:42.458Z,41.95
2023-05-10T02:42:42.509Z,41.93
2023-05-10T02:43:42.516Z,41.91
2023-05-10T02:44:42.538Z,41.92
2023-05-10T02:45:42.577Z,41.92
2023-05-10T02:46:42.545Z,41.93
2023-05-10T02:47:42.613Z,41.92
2023-05-10T02:48:42.583Z,41.94
2023-05-10T02:49:42.608Z,41.93
2023-05-10T02:50:42.619Z,41.96
2023-05-10T02:51:42.648Z,41.95
2023-05-10T02:52:42.660Z,41.96
2023-05-10T02:53:42.722Z,41.95
2023-05-10T02:54:42.703Z,41.97
2023-05-10T02:55:42.737Z,41.96
2023-05-10T02:56:42.739Z,41.94
2023-05-10T02:57:42.762Z,41.96
2023-05-10T02:58:42.811Z,42.00
2023-05-10T02:59:42.825Z,41.96
2023-05-10T03:00:42.833Z,41.97
2023-05-10T03:01:42.934Z,41.97
2023-05-10T03:02:42.988Z,41.99
2023-05-10T03:03:42.922Z,41.99
2023-05-10T03:04:42.979Z,41.99
2023-05-10T03:05:42.942Z,42.02
2023-05-10T03:06:42.962Z,41.99
2023-05-10T03:07:42.992Z,42.01
2023-05-10T03:08:43.021Z,42.02
2023-05-10T03:09:43.048Z,42.03
2023-05-10T03:10:43.052Z,42.03
2023-05-10T03:11:43.069Z,42.04
2023-05-10T03:12:43.167Z,42.06
2023-05-10T03:13:43.095Z,42.04
2023-05-10T03:14:43.122Z,42.03
2023-05-10T03:15:43.134Z,42.04
2023-05-10T03:16:44.899Z,42.08
2023-05-10T03:17:43.177Z,42.07
2023-05-10T03:18:43.209Z,42.08
2023-05-10T03:19:43.205Z,42.05
2023-05-10T03:20:43.207Z,42.07
2023-05-10T03:21:43.226Z,42.08
2023-05-10T03:22:43.249Z,42.09
2023-05-10T03:23:43.295Z,42.08
2023-05-10T03:24:43.287Z,42.12
2023-05-10T03:25:43.299Z,42.10
2023-05-10T03:26:43.310Z,42.12
2023-05-10T03:27:43.319Z,42.11
2023-05-10T03:28:43.357Z,42.11
2023-05-10T03:29:43.391Z,42.11
2023-05-10T03:30:43.398Z,42.12
2023-05-10T03:31:43.474Z,42.12
2023-05-10T03:32:43.503Z,42.12
2023-05-10T03:33:43.461Z,42.12
2023-05-10T03:34:43.489Z,42.14
2023-05-10T03:35:43.466Z,42.11
2023-05-10T03:36:43.522Z,42.13
2023-05-10T03:37:43.502Z,42.14
2023-05-10T03:38:43.525Z,42.11
2023-05-10T03:39:43.526Z,42.13
2023-05-10T03:40:43.536Z,42.17
2023-05-10T03:41:43.584Z,42.16
2023-05-10T03:42:43.598Z,42.15
2023-05-10T03:43:43.645Z,42.15
2023-05-10T03:44:43.652Z,42.16
2023-05-10T03:45:43.653Z,42.19
2023-05-10T03:46:43.710Z,42.17
2023-05-10T03:47:43.742Z,42.18
2023-05-10T03:48:43.748Z,42.17
2023-05-10T03:49:43.734Z,42.19
2023-05-10T03:50:43.739Z,42.17
2023-05-10T03:51:43.763Z,42.19
2023-05-10T03:52:43.801Z,42.21
2023-05-10T03:53:43.827Z,42.21
2023-05-10T03:54:43.844Z,42.23
2023-05-10T03:55:43.890Z,42.17
2023-05-10T03:56:43.878Z,42.20
2023-05-10T03:57:43.910Z,42.22
2023-05-10T03:58:43.960Z,42.24
2023-05-10T03:59:43.963Z,42.20
2023-05-10T04:00:43.990Z,42.20
2023-05-10T04:01:44.096Z,42.20
2023-05-10T04:02:44.746Z,42.18
2023-05-10T04:03:44.162Z,42.21
2023-05-10T04:04:44.058Z,42.22
2023-05-10T04:05:44.146Z,42.22
2023-05-10T04:06:44.170Z,42.22
2023-05-10T04:07:44.135Z,42.22
2023-05-10T04:08:44.146Z,42.23
2023-05-10T04:09:44.193Z,42.22
2023-05-10T04:10:44.213Z,42.22
2023-05-10T04:11:44.213Z,42.23
2023-05-10T04:12:44.289Z,42.25
2023-05-10T04:13:44.262Z,42.25
2023-05-10T04:14:44.284Z,42.27
2023-05-10T04:15:44.299Z,42.24
2023-05-10T04:16:44.390Z,42.25
2023-05-10T04:17:44.372Z,42.29
2023-05-10T04:18:44.377Z,42.26
2023-05-10T04:19:44.393Z,42.30
2023-05-10T04:20:44.425Z,42.29
2023-05-10T04:21:44.453Z,42.29
2023-05-10T04:22:44.462Z,42.27
2023-05-10T04:23:44.495Z,42.30
2023-05-10T04:24:44.523Z,42.32
2023-05-10T04:25:44.546Z,42.33
2023-05-10T04:26:44.564Z,42.32
2023-05-10T04:27:44.586Z,42.29
2023-05-10T04:28:44.607Z,42.29
2023-05-10T04:29:44.639Z,42.28
2023-05-10T04:30:44.700Z,42.33
2023-05-10T04:31:44.682Z,42.35
2023-05-10T04:32:44.727Z,42.32
2023-05-10T04:33:44.711Z,42.31
2023-05-10T04:34:44.739Z,42.28
2023-05-10T04:35:44.756Z,42.29
2023-05-10T04:36:44.807Z,42.31
2023-05-10T04:37:44.818Z,42.32
2023-05-10T04:38:44.844Z,42.35
2023-05-10T04:39:44.868Z,42.36
2023-05-10T04:40:44.873Z,42.35
2023-05-10T04:41:44.937Z,42.37
2023-05-10T04:42:44.961Z,42.36
2023-05-10T04:43:44.941Z,42.35
2023-05-10T04:44:44.992Z,42.38
2023-05-10T04:45:45.032Z,42.34
2023-05-10T04:46:45.083Z,42.37
2023-05-10T04:47:45.102Z,42.42
2023-05-10T04:48:45.109Z,42.39
2023-05-10T04:49:45.162Z,42.40
2023-05-10T04:50:45.103Z,42.41
2023-05-10T04:51:45.151Z,42.46
2023-05-10T04:52:45.161Z,42.43
2023-05-10T04:53:54.132Z,42.44
2023-05-10T04:54:46.180Z,42.46
2023-05-10T04:55:45.181Z,42.44
2023-05-10T04:56:45.176Z,42.47
2023-05-10T04:57:45.156Z,42.44
2023-05-10T04:58:45.232Z,42.48
2023-05-10T04:59:45.160Z,42.47
2023-05-10T05:00:45.145Z,42.46
2023-05-10T05:01:45.191Z,42.46
2023-05-10T05:02:45.199Z,42.51
2023-05-10T05:03:45.238Z,42.50
2023-05-10T05:04:45.138Z,42.50
2023-05-10T05:05:45.105Z,42.50
2023-05-10T05:06:45.154Z,42.53
2023-05-10T05:07:45.102Z,42.51
2023-05-10T05:08:45.075Z,42.54
2023-05-10T05:09:45.074Z,42.55
2023-05-10T05:10:45.086Z,42.57
2023-05-10T05:11:45.069Z,42.56
2023-05-10T05:12:45.067Z,42.57
2023-05-10T05:13:45.050Z,42.56
2023-05-10T05:14:45.063Z,42.56
2023-05-10T05:15:45.072Z,42.59
2023-05-10T05:16:45.208Z,42.58
2023-05-10T05:17:45.181Z,42.60
2023-05-10T05:18:45.146Z,42.58
2023-05-10T05:19:45.165Z,42.57
2023-05-10T05:20:45.185Z,42.60
2023-05-10T05:21:45.217Z,42.55
2023-05-10T05:22:45.255Z,42.51
2023-05-10T05:23:45.323Z,42.55
2023-05-10T05:24:45.304Z,42.57
2023-05-10T05:25:45.301Z,42.58
2023-05-10T05:26:45.336Z,42.55
2023-05-10T05:27:45.351Z,42.53
2023-05-10T05:28:45.357Z,42.56
2023-05-10T05:29:45.423Z,42.60
2023-05-10T05:30:45.418Z,42.56
2023-05-10T05:31:45.462Z,42.57
2023-05-10T05:32:45.492Z,42.58
2023-05-10T05:33:45.478Z,42.63
2023-05-10T05:34:45.496Z,42.81
2023-05-10T05:35:45.517Z,43.04
2023-05-10T05:36:45.585Z,43.16
2023-05-10T05:37:45.561Z,43.66
2023-05-10T05:38:45.613Z,43.92
2023-05-10T05:39:45.640Z,44.57
2023-05-10T05:40:45.636Z,44.35
2023-05-10T05:41:45.646Z,44.82
2023-05-10T05:42:45.741Z,45.57
2023-05-10T05:43:45.720Z,45.72
2023-05-10T05:44:45.733Z,45.49
2023-05-10T05:45:45.742Z,45.72
2023-05-10T05:46:45.715Z,45.75
2023-05-10T05:47:45.788Z,46.83
2023-05-10T05:48:45.744Z,46.45
2023-05-10T05:49:45.761Z,46.01
2023-05-10T05:50:45.739Z,46.24
2023-05-10T05:51:45.905Z,46.55
2023-05-10T05:52:45.752Z,46.84
2023-05-10T05:53:45.775Z,47.09
2023-05-10T05:54:45.788Z,47.00
2023-05-10T05:55:45.784Z,47.11
2023-05-10T05:56:45.794Z,47.20
2023-05-10T05:57:45.811Z,47.30
2023-05-10T05:58:45.827Z,47.52
2023-05-10T05:59:45.851Z,47.43
2023-05-10T06:00:45.853Z,47.26
2023-05-10T06:01:45.963Z,47.53
2023-05-10T06:02:46.133Z,47.45
2023-05-10T06:03:45.979Z,47.23
2023-05-10T06:04:45.928Z,47.07
2023-05-10T06:05:46.005Z,47.11
2023-05-10T06:06:45.968Z,47.26
2023-05-10T06:07:45.972Z,47.03
2023-05-10T06:08:46.017Z,46.84
2023-05-10T06:09:46.042Z,46.86
2023-05-10T06:10:46.097Z,46.80
2023-05-10T06:11:46.101Z,46.80
2023-05-10T06:12:46.111Z,46.83
2023-05-10T06:13:46.223Z,46.86
2023-05-10T06:14:46.176Z,46.76
2023-05-10T06:15:46.161Z,46.79
2023-05-10T06:16:46.276Z,46.90
2023-05-10T06:17:46.288Z,46.85
2023-05-10T06:18:46.190Z,47.12
2023-05-10T06:19:46.196Z,47.73
2023-05-10T06:20:46.271Z,47.43
2023-05-10T06:21:46.207Z,47.38
2023-05-10T06:22:46.254Z,47.23
2023-05-10T06:23:46.212Z,47.45
2023-05-10T06:24:46.242Z,47.37
2023-05-10T06:25:46.262Z,47.53
2023-05-10T06:26:46.251Z,47.64
2023-05-10T06:27:49.794Z,47.68
2023-05-10T06:28:47.318Z,47.67
2023-05-10T06:29:46.315Z,47.62
2023-05-10T06:30:46.377Z,47.63
2023-05-10T06:31:46.276Z,47.97
2023-05-10T06:32:46.348Z,48.00
2023-05-10T06:33:46.266Z,48.06
2023-05-10T06:34:46.256Z,47.89
2023-05-10T06:35:46.254Z,47.50
2023-05-10T06:36:46.367Z,47.90
2023-05-10T06:37:46.393Z,47.71
2023-05-10T06:38:46.481Z,47.44
2023-05-10T06:39:46.875Z,47.47
2023-05-10T06:40:46.571Z,47.58
2023-05-10T06:41:46.636Z,47.80
2023-05-10T06:42:46.707Z,47.58
2023-05-10T06:43:46.772Z,47.50
2023-05-10T06:44:46.881Z,47.42
2023-05-10T06:45:46.829Z,47.50
2023-05-10T06:46:46.909Z,47.51
2023-05-10T06:47:46.950Z,47.72
2023-05-10T06:48:46.913Z,47.93
2023-05-10T06:49:46.967Z,47.66
2023-05-10T06:50:46.953Z,47.85
2023-05-10T06:51:47.003Z,47.87
2023-05-10T06:52:47.051Z,47.93
2023-05-10T06:53:47.072Z,47.91
2023-05-10T06:54:47.147Z,47.99
2023-05-10T06:55:47.092Z,48.09
2023-05-10T06:56:47.106Z,48.05
2023-05-10T06:57:47.132Z,48.00
2023-05-10T06:58:47.223Z,48.02
2023-05-10T06:59:47.245Z,47.98
2023-05-10T07:00:47.253Z,48.37
2023-05-10T07:01:47.279Z,48.07
2023-05-10T07:02:47.284Z,48.25
2023-05-10T07:03:47.299Z,47.93
2023-05-10T07:04:47.422Z,48.05
2023-05-10T07:05:47.445Z,48.07
2023-05-10T07:06:47.535Z,48.13
2023-05-10T07:07:47.549Z,48.39
2023-05-10T07:08:47.633Z,48.29
2023-05-10T07:09:47.751Z,48.18
2023-05-10T07:10:47.747Z,48.27
2023-05-10T07:11:47.814Z,48.13
2023-05-10T07:12:48.019Z,48.27
2023-05-10T07:13:47.954Z,48.50
2023-05-10T07:14:48.386Z,48.46
2023-05-10T07:15:48.081Z,48.54
2023-05-10T07:16:48.134Z,48.55
2023-05-10T07:17:48.265Z,48.52
2023-05-10T07:18:48.277Z,48.67
2023-05-10T07:19:48.376Z,48.74
2023-05-10T07:20:48.467Z,48.75
2023-05-10T07:21:48.469Z,48.73
2023-05-10T07:22:48.504Z,48.75
2023-05-10T07:23:48.559Z,48.61
2023-05-10T07:24:48.633Z,48.68
2023-05-10T07:25:48.691Z,49.05
2023-05-10T07:26:48.754Z,48.73
2023-05-10T07:27:48.808Z,49.07
2023-05-10T07:28:48.863Z,48.99
2023-05-10T07:29:48.935Z,48.76
2023-05-10T07:30:49.048Z,48.64
2023-05-10T07:31:49.520Z,49.18
2023-05-10T07:32:49.094Z,49.12
2023-05-10T07:33:49.140Z,49.04
2023-05-10T07:34:49.367Z,49.09
2023-05-10T07:35:49.248Z,48.40
2023-05-10T07:36:49.321Z,48.82
2023-05-10T07:37:49.334Z,48.78
2023-05-10T07:38:49.365Z,48.64
2023-05-10T07:39:49.421Z,48.69
2023-05-10T07:40:49.472Z,48.67
2023-05-10T07:41:49.522Z,48.52
2023-05-10T07:42:49.600Z,48.51
2023-05-10T07:43:49.623Z,48.55
2023-05-10T07:44:49.647Z,48.53
2023-05-10T07:45:49.709Z,48.37
2023-05-10T07:46:49.792Z,48.48
2023-05-10T07:47:49.828Z,48.49
2023-05-10T07:48:49.842Z,48.65
2023-05-10T07:49:50.883Z,48.58
2023-05-10T07:50:49.924Z,48.56
2023-05-10T07:51:49.971Z,48.48
2023-05-10T07:52:50.036Z,48.58
2023-05-10T07:53:50.056Z,48.65
2023-05-10T07:54:50.391Z,48.57
2023-05-10T07:55:50.147Z,48.46
2023-05-10T07:56:50.227Z,48.44
2023-05-10T07:57:50.216Z,48.42
2023-05-10T07:58:50.252Z,48.48
2023-05-10T07:59:50.384Z,48.42
2023-05-10T08:00:50.339Z,48.46
2023-05-10T08:01:50.376Z,48.43
2023-05-10T08:02:50.528Z,48.43
2023-05-10T08:03:50.505Z,48.32
2023-05-10T08:04:50.527Z,48.41
2023-05-10T08:05:50.558Z,48.33
2023-05-10T08:06:50.633Z,48.52
2023-05-10T08:07:50.676Z,48.46
2023-05-10T08:08:50.704Z,48.35
2023-05-10T08:09:50.745Z,48.30
2023-05-10T08:10:50.761Z,48.51
2023-05-10T08:11:50.813Z,48.41
2023-05-10T08:12:50.846Z,48.52
2023-05-10T08:13:50.885Z,48.38
2023-05-10T08:14:50.942Z,48.43
2023-05-10T08:15:51.064Z,48.25
2023-05-10T08:16:51.029Z,48.38
2023-05-10T08:17:51.111Z,48.43
2023-05-10T08:18:51.193Z,48.30
2023-05-10T08:19:51.188Z,48.29
2023-05-10T08:20:51.201Z,48.38
2023-05-10T08:21:51.244Z,48.17
2023-05-10T08:22:52.009Z,48.27
2023-05-10T08:23:51.321Z,48.18
2023-05-10T08:24:51.396Z,48.08
2023-05-10T08:25:51.400Z,48.04
2023-05-10T08:26:51.448Z,47.99
2023-05-10T08:27:51.520Z,48.01
2023-05-10T08:28:51.501Z,47.99
2023-05-10T08:29:51.524Z,47.96
2023-05-10T08:30:51.562Z,47.97
2023-05-10T08:31:51.638Z,47.90
2023-05-10T08:32:51.704Z,47.59
2023-05-10T08:33:51.664Z,47.59
2023-05-10T08:34:51.709Z,47.19
2023-05-10T08:35:51.711Z,47.14
2023-05-10T08:36:51.745Z,47.01
2023-05-10T08:37:51.818Z,47.14
2023-05-10T08:38:52.249Z,47.07
2023-05-10T08:39:51.851Z,47.22
2023-05-10T08:40:51.953Z,47.07
2023-05-10T08:41:51.896Z,47.09
2023-05-10T08:42:51.883Z,47.19
2023-05-10T08:43:51.977Z,47.11
2023-05-10T08:44:51.965Z,47.61
2023-05-10T08:45:52.404Z,47.53
2023-05-10T08:46:52.056Z,47.57
2023-05-10T08:47:52.081Z,47.80
2023-05-10T08:48:52.042Z,47.62
2023-05-10T08:49:52.528Z,47.84
2023-05-10T08:50:52.100Z,47.97
2023-05-10T08:51:52.113Z,48.13
2023-05-10T08:52:52.107Z,47.98
2023-05-10T08:53:52.139Z,48.01
2023-05-10T08:54:52.176Z,48.22
2023-05-10T08:55:52.109Z,48.18
2023-05-10T08:56:52.891Z,48.33
2023-05-10T08:57:52.135Z,48.17
2023-05-10T08:58:52.186Z,48.26
2023-05-10T08:59:52.116Z,48.34
2023-05-10T09:00:52.188Z,48.40
2023-05-10T09:01:52.113Z,48.58
2023-05-10T09:02:52.174Z,48.89
2023-05-10T09:03:52.169Z,48.82
2023-05-10T09:04:52.260Z,48.72
2023-05-10T09:05:52.129Z,48.75
2023-05-10T09:06:52.124Z,48.76
2023-05-10T09:07:52.152Z,48.82
2023-05-10T09:08:52.168Z,48.94
2023-05-10T09:09:52.201Z,48.94
2023-05-10T09:10:52.256Z,49.11
2023-05-10T09:11:52.277Z,49.15
2023-05-10T09:12:52.381Z,49.18
2023-05-10T09:13:52.423Z,49.23
2023-05-10T09:14:52.518Z,49.32
2023-05-10T09:15:52.558Z,49.29
2023-05-10T09:16:52.547Z,49.31
2023-05-10T09:17:52.654Z,49.46
2023-05-10T09:18:52.691Z,49.44
2023-05-10T09:19:52.650Z,49.51
2023-05-10T09:20:52.744Z,49.74
2023-05-10T09:21:52.727Z,49.68
2023-05-10T09:22:52.795Z,49.62
2023-05-10T09:23:52.814Z,49.95
2023-05-10T09:24:52.864Z,49.67
2023-05-10T09:25:52.864Z,49.70
2023-05-10T09:26:52.859Z,49.93
2023-05-10T09:27:52.834Z,49.99
2023-05-10T09:29:17.933Z,50.11
2023-05-10T09:30:17.246Z,50.01
2023-05-10T09:31:17.285Z,50.05
2023-05-10T09:32:17.924Z,48.79
2023-05-10T09:33:17.324Z,48.94
2023-05-10T09:34:17.973Z,48.90
2023-05-10T09:35:17.475Z,48.78
2023-05-10T09:36:17.214Z,48.55
2023-05-10T09:37:17.182Z,48.55
2023-05-10T09:38:17.168Z,48.95
2023-05-10T09:39:17.156Z,49.09
2023-05-10T09:40:17.196Z,48.93
2023-05-10T09:41:17.191Z,48.99
2023-05-10T09:42:17.139Z,49.01
2023-05-10T09:43:17.120Z,48.88
2023-05-10T09:44:17.148Z,48.85
2023-05-10T09:45:17.322Z,48.83
2023-05-10T09:46:17.133Z,48.83
2023-05-10T09:47:17.142Z,48.77
2023-05-10T09:48:17.096Z,48.62
2023-05-10T09:49:17.100Z,48.82
2023-05-10T09:50:17.472Z,48.80
2023-05-10T09:51:17.093Z,48.96
2023-05-10T09:52:17.103Z,48.92
2023-05-10T09:53:17.070Z,48.82
2023-05-10T09:54:17.079Z,48.81
2023-05-10T09:55:17.268Z,48.77
2023-05-10T09:56:17.064Z,48.69
2023-05-10T09:57:17.046Z,48.87
2023-05-10T09:58:17.034Z,48.83
2023-05-10T09:59:17.016Z,48.93
2023-05-10T10:00:17.101Z,48.86
2023-05-10T10:01:17.058Z,48.84
2023-05-10T10:02:17.000Z,48.88
2023-05-10T10:03:17.025Z,48.89
2023-05-10T10:04:17.044Z,48.70
2023-05-10T10:05:17.172Z,48.75
2023-05-10T10:06:29.003Z,48.78
2023-05-10T10:07:17.989Z,48.73
2023-05-10T10:08:17.092Z,48.74
2023-05-10T10:09:16.985Z,48.65
2023-05-10T10:10:17.059Z,48.73
2023-05-10T10:11:17.445Z,48.68
2023-05-10T10:12:16.959Z,48.76
2023-05-10T10:13:16.961Z,48.78
2023-05-10T10:14:16.931Z,48.74
2023-05-10T10:15:17.101Z,48.68
2023-05-10T10:16:16.965Z,48.79
2023-05-10T10:17:16.930Z,48.72
2023-05-10T10:18:17.013Z,48.62
2023-05-10T10:19:16.919Z,48.70
2023-05-10T10:20:17.126Z,48.70
2023-05-10T10:21:17.030Z,48.75
2023-05-10T10:22:17.087Z,48.70
2023-05-10T10:23:17.762Z,48.63
2023-05-10T10:24:17.125Z,48.65
2023-05-10T10:25:17.402Z,48.60
2023-05-10T10:26:17.228Z,48.56
2023-05-10T10:27:17.234Z,48.62
2023-05-10T10:28:17.265Z,48.64
2023-05-10T10:29:17.308Z,48.59
2023-05-10T10:30:17.344Z,48.59
2023-05-10T10:31:17.504Z,48.59
2023-05-10T10:32:17.440Z,48.57
2023-05-10T10:33:27.890Z,48.55
2023-05-10T10:34:18.476Z,48.45
2023-05-10T10:35:17.739Z,48.43
2023-05-10T10:36:17.472Z,48.44
2023-05-10T10:37:17.502Z,48.42
2023-05-10T10:38:17.463Z,48.42
2023-05-10T10:39:17.454Z,48.35
2023-05-10T10:40:17.422Z,48.35
2023-05-10T10:41:17.451Z,48.35
2023-05-10T10:42:17.430Z,48.34
2023-05-10T10:43:17.409Z,48.28
2023-05-10T10:44:17.436Z,48.24
2023-05-10T10:45:17.739Z,48.23
2023-05-10T10:46:17.534Z,48.24
2023-05-10T10:47:17.561Z,48.15
2023-05-10T10:48:17.604Z,48.19
2023-05-10T10:49:17.639Z,48.10
2023-05-10T10:50:17.691Z,48.16
2023-05-10T10:51:17.761Z,48.16
2023-05-10T10:52:17.776Z,48.08
2023-05-10T10:53:17.862Z,48.06
2023-05-10T10:54:17.877Z,48.06
2023-05-10T10:55:18.183Z,48.05
2023-05-10T10:56:17.987Z,48.00
2023-05-10T10:57:17.994Z,48.01
2023-05-10T10:58:18.971Z,47.98
2023-05-10T10:59:18.090Z,47.92
2023-05-10T11:00:18.133Z,47.90
2023-05-10T11:01:18.278Z,47.83
2023-05-10T11:02:18.243Z,47.80
2023-05-10T11:03:18.356Z,47.86
2023-05-10T11:04:18.459Z,47.86
2023-05-10T11:05:18.525Z,47.81
2023-05-10T11:06:18.459Z,47.82
2023-05-10T11:07:18.521Z,47.76
2023-05-10T11:08:18.584Z,47.83
2023-05-10T11:09:18.629Z,47.86
2023-05-10T11:10:18.672Z,47.84
2023-05-10T11:11:18.753Z,47.93
2023-05-10T11:12:18.814Z,47.91
2023-05-10T11:13:18.818Z,48.13
2023-05-10T11:14:18.887Z,48.02
2023-05-10T11:15:18.963Z,48.04
2023-05-10T11:16:19.120Z,48.16
2023-05-10T11:17:18.978Z,48.36
2023-05-10T11:18:19.072Z,48.29
2023-05-10T11:19:19.085Z,48.28
2023-05-10T11:20:19.503Z,48.34
2023-05-10T11:21:19.248Z,48.28
2023-05-10T11:22:19.168Z,48.41
2023-05-10T11:23:19.231Z,48.30
2023-05-10T11:24:19.242Z,48.32
2023-05-10T11:25:19.351Z,48.35
2023-05-10T11:26:19.338Z,48.31
2023-05-10T11:27:19.366Z,48.32
2023-05-10T11:28:19.427Z,48.18
2023-05-10T11:29:19.435Z,48.35
2023-05-10T11:30:19.771Z,48.33
2023-05-10T11:31:19.592Z,48.34
2023-05-10T11:32:19.561Z,48.32
2023-05-10T11:33:19.621Z,48.34
2023-05-10T11:34:19.658Z,48.29
2023-05-10T11:35:19.729Z,48.29
2023-05-10T11:36:19.777Z,48.29
2023-05-10T11:37:19.786Z,48.27
2023-05-10T11:38:19.837Z,48.25
2023-05-10T11:39:19.897Z,48.24
2023-05-10T11:40:20.128Z,48.24
2023-05-10T11:41:19.978Z,48.23
2023-05-10T11:42:19.997Z,48.23
2023-05-10T11:43:20.036Z,48.24
2023-05-10T11:44:20.101Z,48.24
2023-05-10T11:45:20.124Z,48.17
2023-05-10T11:46:20.261Z,48.19
2023-05-10T11:47:20.231Z,48.23
2023-05-10T11:48:20.275Z,48.20
2023-05-10T11:49:20.305Z,48.17
2023-05-10T11:50:20.405Z,48.21
2023-05-10T11:51:20.395Z,48.19
2023-05-10T11:52:20.435Z,48.18
2023-05-10T11:53:20.497Z,48.18
2023-05-10T11:54:20.543Z,48.13
2023-05-10T11:55:20.620Z,48.15
2023-05-10T11:56:20.626Z,48.10
2023-05-10T11:57:20.678Z,48.16
2023-05-10T11:58:20.750Z,48.13
2023-05-10T11:59:20.785Z,48.08
2023-05-10T12:00:20.817Z,48.09
2023-05-10T12:01:20.878Z,48.07
2023-05-10T12:02:20.978Z,48.04
2023-05-10T12:03:21.022Z,48.05
2023-05-10T12:04:21.130Z,48.07
2023-05-10T12:05:21.072Z,48.05
2023-05-10T12:06:21.135Z,48.07
2023-05-10T12:07:21.183Z,48.02
2023-05-10T12:08:21.235Z,48.07
2023-05-10T12:09:35.420Z,48.06
2023-05-10T12:10:22.284Z,48.03
2023-05-10T12:11:21.290Z,48.01
2023-05-10T12:12:21.263Z,47.94
2023-05-10T12:13:21.252Z,47.93
2023-05-10T12:14:21.258Z,47.99
2023-05-10T12:15:21.252Z,47.97
2023-05-10T12:16:21.304Z,48.00
2023-05-10T12:17:21.227Z,47.95
2023-05-10T12:18:21.265Z,47.98
2023-05-10T12:19:21.268Z,47.91
2023-05-10T12:20:21.310Z,47.89
2023-05-10T12:21:21.385Z,47.90
2023-05-10T12:22:21.424Z,47.89
2023-05-10T12:23:21.477Z,47.84
2023-05-10T12:24:21.527Z,47.84
2023-05-10T12:25:21.597Z,47.83
2023-05-10T12:26:21.644Z,47.81
2023-05-10T12:27:21.704Z,47.82
2023-05-10T12:28:21.799Z,47.82
2023-05-10T12:29:21.810Z,47.81
2023-05-10T12:30:21.880Z,47.79
2023-05-10T12:31:21.979Z,47.77
2023-05-10T12:32:21.991Z,47.76
2023-05-10T12:33:22.041Z,47.75
2023-05-10T12:34:22.112Z,47.75
2023-05-10T12:35:22.178Z,47.73
2023-05-10T12:36:22.236Z,47.72
2023-05-10T12:37:22.294Z,47.72
2023-05-10T12:38:22.352Z,47.68
2023-05-10T12:39:22.414Z,47.68
2023-05-10T12:40:22.456Z,47.69
2023-05-10T12:41:22.560Z,47.65
2023-05-10T12:42:22.563Z,47.65
2023-05-10T12:43:22.639Z,47.64
2023-05-10T12:44:22.711Z,47.59
2023-05-10T12:45:22.739Z,47.56
2023-05-10T12:46:22.844Z,47.59
2023-05-10T12:47:22.848Z,47.55
2023-05-10T12:48:22.884Z,47.54
2023-05-10T12:49:22.981Z,47.54
2023-05-10T12:50:22.997Z,47.53
2023-05-10T12:51:23.119Z,47.53
2023-05-10T12:52:23.124Z,47.50
2023-05-10T12:53:23.174Z,47.52
2023-05-10T12:54:23.248Z,47.50
2023-05-10T12:55:23.291Z,47.46
2023-05-10T12:56:23.367Z,47.42
2023-05-10T12:57:23.448Z,47.42
2023-05-10T12:58:34.933Z,47.41
2023-05-10T12:59:24.461Z,47.41
2023-05-10T13:00:23.465Z,47.42
2023-05-10T13:01:23.667Z,47.39
2023-05-10T13:02:23.473Z,47.37
2023-05-10T13:03:23.453Z,47.37